πŸ“Š DonnΓ©es MΓ©tΓ©o - Bordeaux

Total mesures

14,422

TempΓ©rature moyenne

18.9Β°C

Temp. Min/Max

2.9Β° / 42.4Β°

HumiditΓ© moyenne

64.9%

Pression moyenne

1014.7 hPa
enregistrements
ID Date/Heure Temp (Β°C) HumiditΓ© (%) Pression (hPa) Tendance LuminositΓ© (lux) Situation
11122 09/07/2026 04:45 21.8 94.0 1,013.1 β†’ Stable 468 pluvieux-gris (approx.)
11121 09/07/2026 04:15 21.9 93.0 1,013.1 β†’ Stable 0 pluvieux-gris (approx.)
11120 09/07/2026 03:45 21.7 95.0 1,013.1 β†’ Stable 0 pluvieux-gris (approx.)
11119 09/07/2026 03:15 21.5 93.0 1,013.1 β†’ Stable 0 pluvieux-gris (approx.)
11118 09/07/2026 03:00 21.6 92.0 1,013.1 β†’ Stable 0 pluvieux-gris (approx.)
11117 09/07/2026 02:45 21.9 91.0 1,012.5 β†’ Stable 0 pluvieux-gris (approx.)
11116 09/07/2026 02:15 22.3 91.0 1,012.5 β†’ Stable 0 pluvieux-gris (approx.)
11115 09/07/2026 01:45 22.3 91.0 1,013.1 β†’ Stable 0 pluvieux-gris (approx.)
11114 09/07/2026 01:15 23.4 83.0 1,013.1 β†’ Stable 0 pluvieux-gris (approx.)
11113 09/07/2026 00:45 23.6 81.0 1,013.7 β†’ Stable 0 pluvieux-gris (approx.)
11112 09/07/2026 00:15 23.9 78.0 1,013.7 β†’ Stable 0 pluvieux-gris (approx.)
11111 08/07/2026 23:45 24.3 75.0 1,014.0 β†’ Stable 0 pluvieux-gris (approx.)
11110 08/07/2026 23:15 25.0 72.0 1,014.0 β†’ Stable 0 pluvieux-gris (approx.)
11109 08/07/2026 22:45 25.4 70.0 1,013.4 β†’ Stable 0 pluvieux-gris (approx.)
11108 08/07/2026 22:15 25.9 69.0 1,013.4 β†’ Stable 0 confortablement-chaud (approx.)
11107 08/07/2026 21:45 26.2 66.0 1,013.3 β†’ Stable 0 confortablement-chaud (approx.)
11106 08/07/2026 21:15 27.2 59.0 1,013.3 β†’ Stable 0 confortablement-chaud (approx.)
11105 08/07/2026 20:45 27.8 58.0 1,013.0 β†’ Stable 0 confortablement-chaud (approx.)
11104 08/07/2026 20:15 29.3 55.0 1,013.0 β†’ Stable 0 conditions-neutrales-ou-non-definies
11103 08/07/2026 19:45 30.2 53.0 1,012.8 β†’ Stable 1,116 conditions-neutrales-ou-non-definies
11102 08/07/2026 19:15 31.7 48.0 1,012.8 β†’ Stable 7,968 conditions-neutrales-ou-non-definies
11101 08/07/2026 18:45 33.4 41.0 1,012.8 β†’ Stable 15,468 conditions-neutrales-ou-non-definies
11100 08/07/2026 18:15 34.2 41.0 1,012.8 β†’ Stable 26,016 conditions-neutrales-ou-non-definies
11099 08/07/2026 17:45 35.3 37.0 1,012.7 β†’ Stable 35,376 chaleur-seche
11098 08/07/2026 17:15 36.5 30.0 1,012.7 β†’ Stable 47,220 chaleur-seche
11097 08/07/2026 16:45 37.5 24.0 1,012.8 β†’ Stable 57,036 chaleur-seche
11096 08/07/2026 16:15 38.5 19.0 1,012.8 β†’ Stable 67,872 chaleur-seche
11095 08/07/2026 15:45 38.3 20.0 1,013.3 β†’ Stable 76,764 chaleur-seche
11094 08/07/2026 15:15 38.3 22.0 1,013.3 β†’ Stable 84,912 chaleur-seche
11093 08/07/2026 14:45 37.7 22.0 1,014.0 β†’ Stable 91,848 chaleur-seche
11092 08/07/2026 14:15 37.4 23.0 1,014.0 β†’ Stable 97,404 chaleur-seche
11091 08/07/2026 13:45 36.9 24.0 1,014.8 β†’ Stable 101,760 chaleur-seche
11090 08/07/2026 13:15 36.2 28.0 1,014.7 β†’ Stable 105,000 chaleur-seche
11089 08/07/2026 12:45 35.6 31.0 1,015.5 β†’ Stable 106,944 chaleur-seche
11088 08/07/2026 12:15 34.9 33.0 1,015.5 β†’ Stable 107,592 chaleur-seche
11087 08/07/2026 11:45 34.0 36.0 1,015.9 β†’ Stable 106,944 chaleur-seche
11086 08/07/2026 11:15 32.8 40.0 1,015.9 β†’ Stable 105,000 confortablement-chaud (approx.)
11085 08/07/2026 10:45 31.7 44.0 1,016.4 β†’ Stable 101,856 confortablement-chaud (approx.)
11084 08/07/2026 10:15 30.8 47.0 1,016.4 β†’ Stable 97,224 confortablement-chaud (approx.)
11083 08/07/2026 09:45 29.7 52.0 1,016.6 β†’ Stable 91,572 confortablement-chaud (approx.)
11082 08/07/2026 09:15 28.5 58.0 1,016.6 β†’ Stable 82,500 confortablement-chaud
11081 08/07/2026 08:45 27.4 63.0 1,016.9 β†’ Stable 74,628 confortablement-chaud
11080 08/07/2026 08:15 26.5 67.0 1,016.9 β†’ Stable 62,964 confortablement-chaud (approx.)
11079 08/07/2026 07:45 25.4 72.0 1,016.9 β†’ Stable 54,072 pluvieux-gris (approx.)
11078 08/07/2026 07:15 24.1 77.0 1,016.9 β†’ Stable 34,908 pluvieux-gris (approx.)
11077 08/07/2026 07:00 23.6 80.0 1,016.9 β†’ Stable 29,256 pluvieux-gris (approx.)
11076 08/07/2026 06:45 23.1 83.0 1,016.6 β†’ Stable 26,112 pluvieux-gris (approx.)
11075 08/07/2026 06:15 22.2 84.0 1,016.6 β†’ Stable 16,392 pluvieux-gris (approx.)
11074 08/07/2026 06:00 21.8 85.0 1,016.6 β†’ Stable 12,228 pluvieux-gris (approx.)
11073 08/07/2026 05:45 21.4 87.0 1,016.3 β†’ Stable 9,912 pluvieux-gris (approx.)
11072 08/07/2026 05:15 21.3 88.0 1,016.3 β†’ Stable 3,516 pluvieux-gris (approx.)
11071 08/07/2026 05:00 21.0 90.0 1,016.3 β†’ Stable 1,668 pluvieux-gris (approx.)
11070 08/07/2026 04:45 20.8 92.0 1,016.3 β†’ Stable 552 pluvieux-gris (approx.)
11069 08/07/2026 04:15 20.8 91.0 1,016.3 β†’ Stable 0 pluvieux-gris (approx.)
11068 08/07/2026 04:00 20.7 91.0 1,016.3 β†’ Stable 0 pluvieux-gris (approx.)
11067 08/07/2026 03:45 20.5 91.0 1,016.3 β†’ Stable 0 pluvieux-gris (approx.)
11066 08/07/2026 03:15 20.4 91.0 1,016.3 β†’ Stable 0 pluvieux-gris (approx.)
11065 08/07/2026 03:00 20.7 90.0 1,016.3 β†’ Stable 0 pluvieux-gris (approx.)
11064 08/07/2026 02:45 20.9 89.0 1,016.0 β†’ Stable 0 pluvieux-gris (approx.)
11063 08/07/2026 02:15 21.9 87.0 1,016.0 β†’ Stable 0 pluvieux-gris (approx.)
11062 08/07/2026 01:45 22.2 85.0 1,016.2 β†’ Stable 0 pluvieux-gris (approx.)
11061 08/07/2026 01:15 22.7 84.0 1,016.2 β†’ Stable 0 pluvieux-gris (approx.)
11060 08/07/2026 00:45 23.0 83.0 1,016.4 β†’ Stable 0 pluvieux-gris (approx.)
11059 08/07/2026 00:15 23.2 82.0 1,016.4 β†’ Stable 0 pluvieux-gris (approx.)
11058 07/07/2026 23:15 23.6 81.0 1,016.7 β†’ Stable 0 pluvieux-gris (approx.)
11057 07/07/2026 22:45 23.8 81.0 1,017.0 β†’ Stable 0 pluvieux-gris (approx.)
11056 07/07/2026 22:15 24.2 81.0 1,017.0 β†’ Stable 0 pluvieux-gris (approx.)
11055 07/07/2026 21:45 24.3 82.0 1,016.7 β†’ Stable 0 pluvieux-gris (approx.)
11054 07/07/2026 21:15 24.1 82.0 1,016.7 β†’ Stable 0 pluvieux-gris (approx.)
11053 07/07/2026 20:45 24.5 81.0 1,015.0 β†’ Stable 0 pluvieux-gris (approx.)
11052 07/07/2026 20:15 26.5 66.0 1,015.0 β†’ Stable 0 confortablement-chaud (approx.)
11051 07/07/2026 19:45 28.1 63.0 1,014.0 β†’ Stable 1,200 confortablement-chaud (approx.)
11050 07/07/2026 19:15 30.6 53.0 1,014.0 β†’ Stable 8,244 conditions-neutrales-ou-non-definies
11049 07/07/2026 18:45 33.9 36.0 1,013.4 β†’ Stable 15,924 chaleur-seche
11048 07/07/2026 18:15 36.2 27.0 1,013.4 β†’ Stable 26,664 chaleur-seche
11047 07/07/2026 17:45 37.4 23.0 1,013.3 β†’ Stable 36,300 chaleur-seche
11046 07/07/2026 17:15 38.2 23.0 1,013.3 β†’ Stable 47,412 chaleur-seche
11045 07/07/2026 16:45 38.7 22.0 1,013.5 β†’ Stable 57,036 chaleur-seche
11044 07/07/2026 16:15 38.7 25.0 1,013.5 β†’ Stable 68,616 chaleur-seche
11043 07/07/2026 15:45 39.8 19.0 1,013.9 β†’ Stable 77,772 chaleur-seche
11042 07/07/2026 15:15 40.3 9.0 1,013.9 β†’ Stable 85,272 chaleur-seche
11041 07/07/2026 14:45 40.1 9.0 1,014.4 β†’ Stable 91,848 chaleur-seche
11040 07/07/2026 14:15 40.1 9.0 1,014.4 β†’ Stable 97,404 chaleur-seche
11039 07/07/2026 13:45 39.8 9.0 1,015.1 β†’ Stable 101,856 chaleur-seche
11038 07/07/2026 13:15 39.6 10.0 1,015.2 β†’ Stable 105,096 chaleur-seche
11037 07/07/2026 12:45 39.2 11.0 1,015.8 β†’ Stable 107,040 chaleur-seche
11036 07/07/2026 12:15 38.5 12.0 1,015.8 β†’ Stable 107,688 chaleur-seche
11035 07/07/2026 11:45 37.8 14.0 1,016.2 β†’ Stable 107,040 chaleur-seche
11034 07/07/2026 11:15 37.1 16.0 1,016.2 β†’ Stable 105,096 chaleur-seche
11033 07/07/2026 10:45 36.3 17.0 1,016.4 β†’ Stable 101,940 chaleur-seche
11032 07/07/2026 10:15 35.4 18.0 1,016.4 β†’ Stable 97,500 chaleur-seche
11031 07/07/2026 10:00 34.9 19.0 1,016.4 β†’ Stable 94,908 chaleur-seche
11030 07/07/2026 09:45 34.3 20.0 1,016.2 β†’ Stable 92,040 chaleur-seche
11029 07/07/2026 09:15 33.0 21.0 1,016.2 β†’ Stable 85,464 chaleur-seche
11028 07/07/2026 08:45 31.7 22.0 1,016.1 β†’ Stable 77,964 chaleur-seche
11027 07/07/2026 08:15 30.6 25.0 1,016.1 β†’ Stable 67,404 chaleur-seche
11026 07/07/2026 07:45 29.6 26.0 1,015.7 β†’ Stable 58,236 conditions-neutrales-ou-non-definies
11025 07/07/2026 07:15 28.0 30.0 1,015.7 β†’ Stable 45,552 conditions-neutrales-ou-non-definies
11024 07/07/2026 06:45 26.8 33.0 1,015.4 β†’ Stable 36,108 conditions-neutrales-ou-non-definies
11023 07/07/2026 06:15 24.5 42.0 1,015.4 β†’ Stable 23,328 confortablement-chaud (approx.)